Time;durP1;ratioP1;P1;durP2;ratioP2;P2;SDS_P1;SDS_P2;PMS_P1;PMS_P2;Temp;Humidity;BMP_temperature;BMP_pressure;BME280_temperature;BME280_humidity;BME280_pressure;Samples;Min_cycle;Max_cycle;Signal;HPM_P1;HPM_P2
2023/08/14 00:01:23;;;;;;;11.02;3.08;;;16.30;99.90;;;;;;5091456;28;20446;-61
2023/08/14 00:03:50;;;;;;;3.70;2.78;;;16.30;99.90;;;;;;5091197;28;20115;-60
2023/08/14 00:06:15;;;;;;;4.60;2.50;;;16.20;99.90;;;;;;5091511;28;20367;-61
2023/08/14 00:08:41;;;;;;;6.38;3.20;;;16.20;99.90;;;;;;5095939;28;20097;-61
2023/08/14 00:11:07;;;;;;;4.95;2.88;;;16.20;99.90;;;;;;5111837;28;20035;-60
2023/08/14 00:13:56;;;;;;;4.95;2.90;;;16.20;99.90;;;;;;5110385;28;20035;-60
2023/08/14 00:16:23;;;;;;;3.03;2.73;;;16.20;99.90;;;;;;5106871;28;20032;-60
2023/08/14 00:18:49;;;;;;;5.38;3.15;;;16.20;99.90;;;;;;5103206;28;20043;-60
2023/08/14 00:21:17;;;;;;;5.78;3.30;;;16.10;99.90;;;;;;5110545;28;20443;-60
2023/08/14 00:23:43;;;;;;;7.47;2.92;;;16.00;99.90;;;;;;5109770;28;20066;-59
2023/08/14 00:26:11;;;;;;;7.95;3.45;;;16.00;99.90;;;;;;5111924;28;20443;-59
2023/08/14 00:28:36;;;;;;;6.25;3.58;;;16.00;99.90;;;;;;5111434;28;20135;-59
2023/08/14 00:31:02;;;;;;;8.50;3.38;;;16.00;99.90;;;;;;5115619;28;20115;-59
2023/08/14 00:33:28;;;;;;;9.27;3.28;;;16.00;99.90;;;;;;5115693;27;20036;-60
2023/08/14 00:35:53;;;;;;;7.78;3.63;;;16.00;99.90;;;;;;5107048;28;20040;-61
2023/08/14 00:38:19;;;;;;;6.07;3.55;;;16.00;99.90;;;;;;5095139;28;20467;-60
2023/08/14 00:40:45;;;;;;;4.20;3.28;;;16.00;99.90;;;;;;5095017;28;20032;-58
2023/08/14 00:43:10;;;;;;;6.65;3.65;;;15.90;99.90;;;;;;5094212;28;20071;-59
2023/08/14 00:45:37;;;;;;;7.10;3.53;;;16.00;99.90;;;;;;5094864;28;20501;-59
2023/08/14 00:48:03;;;;;;;6.80;3.20;;;15.90;99.90;;;;;;5095002;28;20040;-59
2023/08/14 00:50:29;;;;;;;6.85;3.47;;;15.90;99.90;;;;;;5094649;28;20173;-59
2023/08/14 00:52:57;;;;;;;3.95;2.90;;;15.90;99.90;;;;;;5094659;28;20177;-59
2023/08/14 00:55:26;;;;;;;5.68;3.65;;;15.90;99.90;;;;;;5094833;28;20040;-60
2023/08/14 00:57:55;;;;;;;4.18;2.90;;;15.90;99.90;;;;;;5094772;28;20043;-61
2023/08/14 01:00:22;;;;;;;5.88;3.30;;;15.90;99.90;;;;;;5094563;28;20044;-60
2023/08/14 01:02:49;;;;;;;7.25;3.80;;;15.80;99.90;;;;;;5094671;28;20506;-60
2023/08/14 01:05:15;;;;;;;4.72;3.47;;;15.90;99.90;;;;;;5094798;28;20036;-60
2023/08/14 01:07:41;;;;;;;6.63;4.10;;;15.90;99.90;;;;;;5094823;28;20117;-60
2023/08/14 01:10:08;;;;;;;9.48;4.07;;;15.80;99.90;;;;;;5094614;28;20072;-60
2023/08/14 01:12:58;;;;;;;6.32;3.50;;;15.80;99.90;;;;;;5094389;28;20032;-60
2023/08/14 01:15:42;;;;;;;8.15;4.63;;;15.80;99.90;;;;;;5094873;28;20040;-59
2023/08/14 01:18:12;;;;;;;6.40;4.57;;;15.80;99.90;;;;;;5092841;28;20092;-60
2023/08/14 01:20:38;;;;;;;4.57;4.03;;;15.80;99.90;;;;;;5114730;28;20044;-59
2023/08/14 01:23:22;;;;;;;6.38;4.03;;;15.80;99.90;;;;;;5114723;28;20413;-60
2023/08/14 01:25:51;;;;;;;6.13;3.75;;;15.80;99.90;;;;;;5114797;27;20039;-60
2023/08/14 01:28:17;;;;;;;;;;;15.70;99.90;;;;;;5114855;28;20059;-60
2023/08/14 01:30:43;;;;;;;6.03;3.95;;;15.70;99.90;;;;;;5114448;28;19920;-60
2023/08/14 01:33:08;;;;;;;5.70;4.20;;;15.70;99.90;;;;;;5114565;28;20177;-59
2023/08/14 01:35:56;;;;;;;8.05;4.20;;;15.70;99.90;;;;;;5108590;28;20046;-59
2023/08/14 01:38:39;;;;;;;4.68;4.20;;;15.70;99.90;;;;;;5093995;28;20634;-59
2023/08/14 01:41:11;;;;;;;8.00;4.18;;;15.60;99.90;;;;;;5092150;28;20047;-59
2023/08/14 01:43:42;;;;;;;4.32;3.85;;;15.60;99.90;;;;;;5094082;28;20075;-60
2023/08/14 01:46:09;;;;;;;4.32;3.60;;;15.70;99.90;;;;;;5094216;28;20043;-59
2023/08/14 01:48:37;;;;;;;6.43;4.60;;;15.70;99.90;;;;;;5093918;28;20036;-60
2023/08/14 01:51:03;;;;;;;4.78;4.28;;;15.60;99.90;;;;;;5093851;28;20070;-60
2023/08/14 01:53:32;;;;;;;6.00;3.80;;;15.60;99.90;;;;;;5093834;28;20044;-60
2023/08/14 01:55:57;;;;;;;9.10;4.40;;;15.50;99.90;;;;;;5093659;28;20088;-59
2023/08/14 01:58:23;;;;;;;6.15;4.03;;;15.60;99.90;;;;;;5093741;28;20047;-60
2023/08/14 02:00:49;;;;;;;6.13;4.70;;;15.50;99.90;;;;;;5093543;28;20028;-60
2023/08/14 02:03:14;;;;;;;6.43;4.97;;;15.60;99.90;;;;;;5094040;28;20051;-60
2023/08/14 02:05:40;;;;;;;5.53;4.78;;;15.60;99.90;;;;;;5092321;28;20101;-60
2023/08/14 02:08:05;;;;;;;7.88;4.60;;;15.50;99.90;;;;;;5093890;28;20063;-60
2023/08/14 02:10:31;;;;;;;5.30;4.50;;;15.60;99.90;;;;;;5093947;28;20115;-60
2023/08/14 02:12:57;;;;;;;10.05;4.55;;;15.50;99.90;;;;;;5093478;28;20382;-61
2023/08/14 02:15:22;;;;;;;7.03;4.45;;;15.50;99.90;;;;;;5093122;28;20044;-61
2023/08/14 02:17:48;;;;;;;7.22;4.40;;;15.50;99.90;;;;;;5092007;28;20044;-60
2023/08/14 02:20:14;;;;;;;7.10;4.45;;;15.60;99.90;;;;;;5093226;28;20124;-60
2023/08/14 02:22:40;;;;;;;6.93;4.63;;;15.50;99.90;;;;;;5093113;28;20044;-60
2023/08/14 02:25:06;;;;;;;10.05;4.80;;;15.50;99.90;;;;;;5093007;28;20056;-61
2023/08/14 02:27:31;;;;;;;6.28;4.57;;;15.50;99.90;;;;;;5092884;28;20048;-60
2023/08/14 02:29:57;;;;;;;6.97;4.90;;;15.40;99.90;;;;;;5091515;28;20047;-62
2023/08/14 02:32:25;;;;;;;6.07;4.22;;;15.40;99.90;;;;;;5112387;28;20031;-62
2023/08/14 02:34:55;;;;;;;8.32;4.95;;;15.40;99.90;;;;;;5113237;28;20389;-60
2023/08/14 02:37:21;;;;;;;10.00;5.40;;;15.40;99.90;;;;;;5107567;28;20539;-61
2023/08/14 02:39:47;;;;;;;6.68;5.13;;;15.40;99.90;;;;;;5104027;28;20032;-60
2023/08/14 02:42:17;;;;;;;5.82;4.60;;;15.40;99.90;;;;;;5113109;28;20078;-60
2023/08/14 02:44:43;;;;;;;6.45;4.85;;;15.40;99.90;;;;;;5112461;28;20100;-60
2023/08/14 02:47:09;;;;;;;7.15;5.50;;;15.40;99.90;;;;;;5091955;28;20076;-60
2023/08/14 02:49:34;;;;;;;5.75;5.00;;;15.40;99.90;;;;;;5092538;28;20074;-60
2023/08/14 02:52:00;;;;;;;6.43;5.05;;;15.40;99.90;;;;;;5092249;28;20036;-60
2023/08/14 02:54:26;;;;;;;6.13;4.63;;;15.40;99.90;;;;;;5091172;28;20036;-60
2023/08/14 02:56:52;;;;;;;11.48;5.90;;;15.30;99.90;;;;;;5092529;28;20097;-60
2023/08/14 02:59:17;;;;;;;8.93;5.75;;;15.30;99.90;;;;;;5092667;28;20032;-60
2023/08/14 03:01:43;;;;;;;9.77;5.95;;;15.40;99.90;;;;;;5092523;28;20371;-60
2023/08/14 03:04:09;;;;;;;7.10;5.90;;;15.40;99.90;;;;;;5092234;28;20043;-60
2023/08/14 03:06:35;;;;;;;5.40;4.88;;;15.40;99.90;;;;;;5092607;28;20079;-60
2023/08/14 03:09:01;;;;;;;7.22;5.78;;;15.40;99.90;;;;;;5092608;28;20048;-60
2023/08/14 03:11:27;;;;;;;7.18;5.15;;;15.40;99.90;;;;;;5092080;28;20087;-61
2023/08/14 03:13:52;;;;;;;7.57;5.40;;;15.40;99.90;;;;;;5092090;28;20040;-61
2023/08/14 03:16:18;;;;;;;8.80;5.47;;;15.40;99.90;;;;;;5092189;28;20036;-61
2023/08/14 03:18:44;;;;;;;11.32;6.65;;;15.40;99.90;;;;;;5092023;28;20036;-60
2023/08/14 03:21:10;;;;;;;9.10;6.75;;;15.40;99.90;;;;;;5091874;28;20107;-61
2023/08/14 03:23:36;;;;;;;9.13;6.00;;;15.30;99.90;;;;;;5092045;28;20036;-61
2023/08/14 03:26:02;;;;;;;12.55;6.60;;;15.40;99.90;;;;;;5091982;28;20047;-61
2023/08/14 03:28:28;;;;;;;7.55;5.78;;;15.40;99.90;;;;;;5091633;28;20100;-61
2023/08/14 03:30:54;;;;;;;8.88;6.35;;;15.40;99.90;;;;;;5091855;28;20044;-61
2023/08/14 03:33:20;;;;;;;9.55;7.07;;;15.40;99.90;;;;;;5091740;28;20044;-61
2023/08/14 03:35:45;;;;;;;9.68;7.22;;;15.40;99.90;;;;;;5091985;28;20089;-60
2023/08/14 03:38:11;;;;;;;10.95;7.75;;;15.50;99.90;;;;;;5091700;28;20051;-60
2023/08/14 03:40:37;;;;;;;12.95;7.35;;;15.40;99.90;;;;;;5091753;28;20394;-61
2023/08/14 03:43:03;;;;;;;12.73;7.38;;;15.50;99.90;;;;;;5091990;28;20050;-60
2023/08/14 03:45:28;;;;;;;8.18;7.32;;;15.50;99.90;;;;;;5092284;28;20406;-60
2023/08/14 03:47:54;;;;;;;8.32;7.18;;;15.40;99.90;;;;;;5112131;28;20036;-60
2023/08/14 03:50:20;;;;;;;11.07;7.32;;;15.50;99.90;;;;;;5112226;28;20039;-62
2023/08/14 03:52:47;;;;;;;9.98;6.95;;;15.60;99.90;;;;;;5111093;28;20031;-61
2023/08/14 03:55:12;;;;;;;9.52;7.47;;;15.50;99.90;;;;;;5098134;28;20046;-60
2023/08/14 03:57:38;;;;;;;11.75;7.45;;;15.60;99.90;;;;;;5090445;28;20043;-60
2023/08/14 04:00:04;;;;;;;14.95;7.68;;;15.50;99.90;;;;;;5091773;28;20047;-61
2023/08/14 04:02:30;;;;;;;9.65;7.30;;;15.50;99.90;;;;;;5092133;28;20032;-60
2023/08/14 04:04:56;;;;;;;12.63;8.20;;;15.60;99.90;;;;;;5095637;28;20492;-61
2023/08/14 04:07:21;;;;;;;10.43;7.07;;;15.60;99.90;;;;;;5095550;28;20043;-60
2023/08/14 04:09:47;;;;;;;12.55;7.80;;;15.60;99.90;;;;;;5095547;28;20093;-61
2023/08/14 04:12:12;;;;;;;13.40;7.88;;;15.60;99.90;;;;;;5095561;28;20039;-61
2023/08/14 04:14:38;;;;;;;13.75;7.28;;;15.60;99.90;;;;;;5094329;28;20093;-59
2023/08/14 04:17:04;;;;;;;10.88;7.55;;;15.60;99.90;;;;;;5095562;28;20040;-60
2023/08/14 04:19:29;;;;;;;10.55;7.75;;;15.70;99.90;;;;;;5095145;28;20035;-60
2023/08/14 04:21:55;;;;;;;11.98;7.50;;;15.70;99.90;;;;;;5095516;28;20110;-60
2023/08/14 04:24:21;;;;;;;15.98;8.55;;;15.60;99.90;;;;;;5095253;28;20100;-61
2023/08/14 04:26:46;;;;;;;8.68;7.75;;;15.60;99.90;;;;;;5095479;28;20043;-60
2023/08/14 04:29:13;;;;;;;11.77;8.25;;;15.70;99.90;;;;;;5095247;28;20051;-60
2023/08/14 04:31:40;;;;;;;10.90;7.97;;;15.60;99.90;;;;;;5095227;28;20040;-60
2023/08/14 04:34:07;;;;;;;10.45;8.05;;;15.70;99.90;;;;;;5095386;28;20125;-59
2023/08/14 04:36:34;;;;;;;9.80;7.68;;;15.70;99.90;;;;;;5095430;28;20040;-60
2023/08/14 04:39:00;;;;;;;12.27;7.75;;;15.70;99.90;;;;;;5095119;28;20497;-60
2023/08/14 04:41:26;;;;;;;12.60;8.15;;;15.70;99.90;;;;;;5095177;28;20085;-60
2023/08/14 04:43:53;;;;;;;11.13;7.85;;;15.70;99.90;;;;;;5095474;28;20376;-59
2023/08/14 04:46:36;;;;;;;11.40;8.35;;;15.80;99.90;;;;;;5095199;28;20588;-59
2023/08/14 04:49:02;;;;;;;13.02;8.25;;;15.80;99.90;;;;;;5095485;28;20036;-60
2023/08/14 04:51:28;;;;;;;11.43;8.15;;;15.80;99.90;;;;;;5110914;28;20036;-60
2023/08/14 04:53:55;;;;;;;10.43;9.10;;;15.80;99.90;;;;;;5111999;28;20166;-60
2023/08/14 04:56:20;;;;;;;17.30;8.50;;;15.80;99.90;;;;;;5095080;28;20367;-60
2023/08/14 04:58:46;;;;;;;12.32;7.85;;;15.90;99.90;;;;;;5105780;28;20050;-60
2023/08/14 05:01:12;;;;;;;19.00;8.45;;;15.90;99.90;;;;;;5106673;27;20081;-59
2023/08/14 05:03:38;;;;;;;10.30;8.02;;;16.00;99.90;;;;;;5115049;28;20032;-60
2023/08/14 05:06:03;;;;;;;14.52;8.65;;;16.10;99.90;;;;;;5107352;28;20036;-60
2023/08/14 05:08:30;;;;;;;12.98;8.93;;;16.10;99.90;;;;;;5115270;28;20046;-59
2023/08/14 05:10:56;;;;;;;10.20;8.02;;;16.10;99.90;;;;;;5115362;28;20118;-60
2023/08/14 05:13:22;;;;;;;10.73;7.63;;;16.20;99.90;;;;;;5114888;28;20114;-59
2023/08/14 05:15:49;;;;;;;11.77;8.65;;;16.20;99.90;;;;;;5114929;28;20071;-59
2023/08/14 05:18:14;;;;;;;12.82;8.30;;;16.20;99.90;;;;;;5113509;28;20042;-60
2023/08/14 05:20:44;;;;;;;10.48;8.27;;;16.20;99.90;;;;;;5114812;28;20036;-61
2023/08/14 05:23:10;;;;;;;12.70;8.20;;;16.20;99.90;;;;;;5111040;28;20042;-60
2023/08/14 05:25:36;;;;;;;11.48;8.55;;;16.20;99.90;;;;;;5114880;28;20036;-60
2023/08/14 05:28:03;;;;;;;11.85;8.02;;;16.20;99.90;;;;;;5113408;28;20056;-60
2023/08/14 05:30:29;;;;;;;14.75;8.82;;;16.20;99.90;;;;;;5114448;28;20038;-59
2023/08/14 05:32:54;;;;;;;12.85;8.60;;;16.30;99.90;;;;;;5113492;28;20032;-59
2023/08/14 05:35:23;;;;;;;11.82;8.27;;;16.20;99.90;;;;;;5114368;28;20032;-60
2023/08/14 05:37:52;;;;;;;;;;;16.40;99.90;;;;;;5114797;28;20487;-60
2023/08/14 05:40:27;;;;;;;15.02;8.15;;;16.40;99.90;;;;;;5114238;28;20342;-60
2023/08/14 05:43:07;;;;;;;14.95;8.70;;;16.40;99.90;;;;;;5114546;28;20039;-60
2023/08/14 05:45:35;;;;;;;11.50;7.95;;;16.50;99.90;;;;;;5114168;28;20057;-60
2023/08/14 05:48:02;;;;;;;13.57;8.73;;;16.40;99.90;;;;;;5114359;27;20062;-59
2023/08/14 05:50:28;;;;;;;12.63;8.27;;;16.50;99.90;;;;;;5113936;28;20477;-60
2023/08/14 05:52:56;;;;;;;14.93;8.35;;;16.50;99.90;;;;;;5106633;28;20089;-60
2023/08/14 05:55:21;;;;;;;12.93;8.55;;;16.60;99.90;;;;;;5098826;28;20024;-60
2023/08/14 05:57:47;;;;;;;13.65;8.65;;;16.60;99.90;;;;;;5075470;28;20036;-60
2023/08/14 06:00:14;;;;;;;11.27;7.75;;;16.70;99.90;;;;;;5108144;28;20099;-61
2023/08/14 06:02:39;;;;;;;12.10;8.02;;;16.60;99.90;;;;;;5114087;28;20048;-59
2023/08/14 06:05:05;;;;;;;16.25;9.40;;;16.70;99.90;;;;;;5114185;27;20027;-59
2023/08/14 06:07:31;;;;;;;13.88;8.20;;;16.70;99.90;;;;;;5114079;28;20066;-60
2023/08/14 06:09:57;;;;;;;14.90;8.38;;;16.80;99.90;;;;;;5113935;28;20772;-58
2023/08/14 06:12:22;;;;;;;11.07;8.32;;;16.80;99.90;;;;;;5113637;28;20179;-59
2023/08/14 06:14:48;;;;;;;11.63;8.55;;;16.80;99.90;;;;;;5113917;28;20047;-59
2023/08/14 06:17:13;;;;;;;11.95;7.95;;;16.90;99.90;;;;;;5113670;28;20031;-59
2023/08/14 06:19:39;;;;;;;11.85;8.18;;;17.00;99.90;;;;;;5113684;28;20511;-59
2023/08/14 06:22:05;;;;;;;17.52;7.72;;;17.10;99.90;;;;;;5107913;28;20496;-59
2023/08/14 06:24:31;;;;;;;17.77;9.27;;;17.10;99.90;;;;;;5113519;28;20031;-59
2023/08/14 06:26:57;;;;;;;14.65;8.23;;;17.10;99.90;;;;;;5107781;28;20028;-60
2023/08/14 06:29:22;;;;;;;11.50;7.72;;;17.20;99.90;;;;;;5113264;28;20409;-59
2023/08/14 06:31:48;;;;;;;13.80;8.18;;;17.30;99.90;;;;;;5106174;28;20044;-60
2023/08/14 06:34:14;;;;;;;15.52;7.80;;;17.40;99.90;;;;;;5109254;28;20039;-60
2023/08/14 06:36:39;;;;;;;10.32;7.47;;;17.50;99.90;;;;;;5110830;28;20119;-60
2023/08/14 06:39:05;;;;;;;16.50;8.20;;;17.50;99.90;;;;;;5107381;28;20402;-59
2023/08/14 06:41:31;;;;;;;12.68;8.48;;;17.60;99.90;;;;;;5111654;28;20031;-59
2023/08/14 06:43:57;;;;;;;10.40;7.68;;;17.60;99.90;;;;;;5112908;28;20064;-59
2023/08/14 06:46:23;;;;;;;15.25;8.93;;;17.70;99.90;;;;;;5113266;28;20047;-60
2023/08/14 06:48:48;;;;;;;10.45;8.07;;;17.60;99.90;;;;;;5110325;28;20043;-60
2023/08/14 06:51:14;;;;;;;11.75;7.85;;;17.70;99.90;;;;;;5109263;27;20036;-61
2023/08/14 06:53:40;;;;;;;10.73;8.27;;;17.80;99.90;;;;;;5107496;28;20039;-61
2023/08/14 06:56:05;;;;;;;13.27;8.40;;;17.80;99.90;;;;;;5090879;28;20482;-59
2023/08/14 06:58:31;;;;;;;12.38;7.63;;;17.80;99.90;;;;;;5092266;28;20044;-59
2023/08/14 07:00:57;;;;;;;10.98;7.43;;;17.80;99.90;;;;;;5088942;28;20043;-59
2023/08/14 07:03:22;;;;;;;12.70;7.30;;;17.90;99.90;;;;;;5081828;28;20405;-59
2023/08/14 07:05:49;;;;;;;11.88;7.63;;;17.90;99.90;;;;;;5101490;28;20036;-58
2023/08/14 07:08:16;;;;;;;15.27;7.53;;;18.00;99.90;;;;;;5113156;28;20046;-58
2023/08/14 07:10:42;;;;;;;15.43;7.60;;;18.00;99.90;;;;;;5115397;28;20032;-58
2023/08/14 07:13:08;;;;;;;13.13;7.32;;;18.20;99.90;;;;;;5098906;28;20051;-58
2023/08/14 07:15:33;;;;;;;14.32;6.82;;;18.40;99.90;;;;;;5081974;28;20039;-58
2023/08/14 07:17:59;;;;;;;10.25;6.65;;;18.60;99.90;;;;;;5093333;28;20036;-58
2023/08/14 07:20:26;;;;;;;12.35;6.95;;;18.90;99.90;;;;;;5093210;28;20043;-58
2023/08/14 07:22:55;;;;;;;11.75;6.53;;;19.10;99.90;;;;;;5092819;28;20160;-57
2023/08/14 07:25:21;;;;;;;7.75;6.05;;;19.30;99.90;;;;;;5092764;28;20058;-58
2023/08/14 07:27:47;;;;;;;7.97;5.43;;;19.60;99.90;;;;;;5092790;28;20490;-59
2023/08/14 07:30:14;;;;;;;10.50;6.28;;;19.70;99.90;;;;;;5093178;28;20048;-58
2023/08/14 07:32:40;;;;;;;11.98;5.90;;;19.90;99.90;;;;;;5092673;28;20044;-58
2023/08/14 07:35:06;;;;;;;10.00;5.63;;;20.10;99.90;;;;;;5092779;28;20043;-58
2023/08/14 07:37:32;;;;;;;10.13;5.60;;;20.20;99.90;;;;;;5107932;28;20158;-58
2023/08/14 07:40:00;;;;;;;6.53;5.55;;;20.40;99.90;;;;;;5112497;28;20048;-58
2023/08/14 07:42:26;;;;;;;;;;;20.50;99.90;;;;;;5102671;28;20386;-58
2023/08/14 07:44:52;;;;;;;8.65;4.93;;;20.40;99.90;;;;;;5093645;28;20397;-57
2023/08/14 07:47:18;;;;;;;8.93;4.97;;;20.60;99.90;;;;;;5092385;28;20502;-58
2023/08/14 07:49:43;;;;;;;7.47;4.70;;;20.90;99.90;;;;;;5092455;28;20122;-58
2023/08/14 07:52:10;;;;;;;8.90;5.32;;;20.80;99.90;;;;;;5092309;28;20143;-58
2023/08/14 07:54:35;;;;;;;10.35;4.82;;;20.90;99.90;;;;;;5092070;28;20048;-58
2023/08/14 07:57:01;;;;;;;11.60;5.00;;;20.90;99.90;;;;;;5092420;28;20040;-59
2023/08/14 07:59:27;;;;;;;8.32;5.13;;;21.00;99.90;;;;;;5092295;28;20097;-58
2023/08/14 08:01:52;;;;;;;7.18;4.07;;;20.90;99.90;;;;;;5092038;28;20113;-58
2023/08/14 08:04:18;;;;;;;7.47;4.20;;;20.90;99.90;;;;;;5092281;28;20031;-58
2023/08/14 08:06:44;;;;;;;12.57;5.15;;;20.80;99.90;;;;;;5092324;28;20036;-58
2023/08/14 08:09:09;;;;;;;10.60;4.70;;;20.80;99.90;;;;;;5087825;28;20097;-58
2023/08/14 08:11:35;;;;;;;12.27;4.00;;;20.80;99.90;;;;;;5092430;28;20039;-58
2023/08/14 08:14:05;;;;;;;8.45;4.38;;;20.80;99.90;;;;;;5091946;28;20112;-58
2023/08/14 08:16:34;;;;;;;9.48;4.35;;;20.80;99.90;;;;;;5091841;28;20486;-58
2023/08/14 08:19:05;;;;;;;9.70;4.68;;;20.70;99.90;;;;;;5091948;28;20040;-58
2023/08/14 08:21:32;;;;;;;11.50;4.85;;;20.70;99.90;;;;;;5091609;28;20412;-59
2023/08/14 08:23:57;;;;;;;14.07;4.40;;;20.70;99.90;;;;;;5094694;28;20438;-58
2023/08/14 08:26:24;;;;;;;8.48;4.13;;;20.80;99.90;;;;;;5090547;28;20036;-59
2023/08/14 08:28:50;;;;;;;9.32;4.30;;;21.00;99.90;;;;;;5091287;28;20486;-58
2023/08/14 08:31:15;;;;;;;9.07;3.97;;;21.10;99.90;;;;;;5091186;28;20051;-58
2023/08/14 08:33:41;;;;;;;8.68;4.07;;;21.40;99.90;;;;;;5091891;28;20039;-58
2023/08/14 08:36:07;;;;;;;6.45;3.25;;;21.70;99.90;;;;;;5091261;28;20043;-60
2023/08/14 08:38:32;;;;;;;9.88;3.67;;;21.80;99.90;;;;;;5090827;28;20079;-62
2023/08/14 08:41:01;;;;;;;9.95;3.53;;;22.10;99.90;;;;;;5089969;28;20036;-62
2023/08/14 08:43:27;;;;;;;11.27;3.55;;;22.10;99.90;;;;;;5091000;28;20032;-61
2023/08/14 08:45:58;;;;;;;10.68;3.42;;;22.20;99.90;;;;;;5092648;28;20039;-61
2023/08/14 08:48:24;;;;;;;11.73;4.40;;;22.20;99.90;;;;;;5098181;28;20378;-61
2023/08/14 08:50:50;;;;;;;7.22;3.67;;;22.30;99.90;;;;;;5113956;28;20043;-61
2023/08/14 08:53:20;;;;;;;5.82;3.28;;;22.50;99.90;;;;;;5098574;28;20045;-61
2023/08/14 08:55:46;;;;;;;6.72;2.83;;;22.70;99.90;;;;;;5085760;28;20059;-60
2023/08/14 08:58:15;;;;;;;11.40;3.20;;;22.80;99.90;;;;;;5086007;28;20046;-61
2023/08/14 09:00:43;;;;;;;12.68;4.22;;;22.80;99.90;;;;;;5092680;28;20493;-61
2023/08/14 09:03:09;;;;;;;11.93;4.32;;;22.90;99.90;;;;;;5094098;28;20036;-60
2023/08/14 09:05:36;;;;;;;12.07;3.28;;;23.10;99.90;;;;;;5093376;28;20105;-58
2023/08/14 09:08:02;;;;;;;10.15;2.50;;;23.30;99.90;;;;;;5106682;28;20358;-57
2023/08/14 09:10:31;;;;;;;8.18;2.42;;;23.30;99.90;;;;;;5114281;28;20035;-58
2023/08/14 09:12:56;;;;;;;5.32;2.05;;;23.40;99.90;;;;;;5115431;28;20501;-59
2023/08/14 09:15:24;;;;;;;10.25;2.42;;;23.50;99.90;;;;;;5115972;27;20039;-59
2023/08/14 09:17:54;;;;;;;11.77;2.65;;;23.40;99.90;;;;;;5118019;28;20087;-59
2023/08/14 09:20:20;;;;;;;12.15;2.40;;;23.20;99.90;;;;;;5115910;28;20100;-58
2023/08/14 09:22:46;;;;;;;6.50;2.08;;;23.20;99.90;;;;;;5115772;28;20040;-58
2023/08/14 09:25:14;;;;;;;8.55;2.85;;;23.10;99.90;;;;;;5113069;28;20092;-62
2023/08/14 09:27:39;;;;;;;5.65;1.52;;;24.00;99.90;;;;;;5091919;28;20052;-62
2023/08/14 09:30:06;;;;;;;5.97;1.95;;;26.70;99.90;;;;;;5094345;28;20394;-62
2023/08/14 09:32:32;;;;;;;7.18;1.50;;;28.20;99.90;;;;;;5094049;28;20107;-61
2023/08/14 09:35:02;;;;;;;3.97;1.13;;;29.10;99.90;;;;;;5092901;28;20135;-62
2023/08/14 09:37:28;;;;;;;6.88;1.45;;;29.50;99.90;;;;;;5094123;28;20048;-62
2023/08/14 09:40:15;;;;;;;15.38;2.60;;;30.40;99.90;;;;;;5094349;28;20044;-61
2023/08/14 09:42:46;;;;;;;5.57;1.70;;;31.50;99.90;;;;;;5079567;28;20037;-61
2023/08/14 09:45:13;;;;;;;4.20;1.08;;;32.20;99.90;;;;;;5093852;28;20036;-61
2023/08/14 09:47:43;;;;;;;13.75;3.33;;;32.40;99.90;;;;;;5094027;28;20038;-62
2023/08/14 09:50:11;;;;;;;9.75;2.65;;;32.90;99.90;;;;;;5093982;28;20047;-61
2023/08/14 09:52:37;;;;;;;23.63;4.93;;;32.70;99.90;;;;;;5093807;28;20081;-62
2023/08/14 09:55:03;;;;;;;10.18;1.80;;;33.10;99.90;;;;;;5093915;28;20089;-62
2023/08/14 09:57:29;;;;;;;7.45;1.48;;;33.90;99.90;;;;;;5093587;28;20047;-61
2023/08/14 09:59:55;;;;;;;4.30;1.13;;;34.10;99.40;;;;;;5093376;28;20033;-61
2023/08/14 10:02:26;;;;;;;3.85;1.23;;;33.50;99.90;;;;;;5093384;28;20517;-62
2023/08/14 10:04:52;;;;;;;3.45;1.10;;;33.00;99.90;;;;;;5093690;28;20040;-61
2023/08/14 10:07:20;;;;;;;3.50;0.98;;;32.70;99.40;;;;;;5093561;28;20040;-62
2023/08/14 10:09:50;;;;;;;4.35;1.00;;;32.30;99.30;;;;;;5083833;28;20075;-61
2023/08/14 10:12:20;;;;;;;5.45;1.10;;;33.30;99.10;;;;;;5113975;28;20044;-62
2023/08/14 10:14:55;;;;;;;2.95;1.20;;;32.90;98.30;;;;;;5113854;28;20044;-62
2023/08/14 10:17:29;;;;;;;4.47;1.10;;;33.50;98.90;;;;;;5113875;28;20035;-61
2023/08/14 10:19:56;;;;;;;3.25;0.95;;;34.50;98.20;;;;;;5113723;28;20385;-61
2023/08/14 10:22:24;;;;;;;3.20;0.95;;;35.20;97.70;;;;;;5108488;28;20489;-61
2023/08/14 10:24:51;;;;;;;;;;;35.40;98.30;;;;;;5111147;27;20043;-61
2023/08/14 10:27:17;;;;;;;5.32;1.20;;;34.90;96.70;;;;;;5107297;28;20448;-62
2023/08/14 10:29:45;;;;;;;5.45;1.35;;;35.20;97.00;;;;;;5111947;28;20090;-61
2023/08/14 10:32:12;;;;;;;5.70;1.63;;;35.80;96.60;;;;;;5111350;28;20044;-61
2023/08/14 10:34:38;;;;;;;1.95;0.90;;;34.80;96.10;;;;;;5116489;28;20226;-59
2023/08/14 10:37:03;;;;;;;1.90;0.82;;;34.40;96.30;;;;;;5116717;28;20155;-60
2023/08/14 10:39:37;;;;;;;4.45;1.02;;;34.60;95.90;;;;;;5113525;28;20075;-61
2023/08/14 10:42:06;;;;;;;1.25;0.65;;;34.70;95.40;;;;;;5114715;28;20050;-60
2023/08/14 10:44:35;;;;;;;1.70;0.90;;;35.60;95.90;;;;;;5112620;27;20044;-61
2023/08/14 10:47:05;;;;;;;5.07;1.08;;;36.00;95.10;;;;;;5114213;28;20036;-60
2023/08/14 10:49:41;;;;;;;3.78;1.17;;;35.50;95.20;;;;;;5114519;28;20058;-61
2023/08/14 10:52:07;;;;;;;3.03;1.20;;;36.00;94.40;;;;;;5112095;28;20040;-60
2023/08/14 10:54:48;;;;;;;5.45;0.80;;;36.20;95.20;;;;;;5105497;28;20482;-61
2023/08/14 10:57:14;;;;;;;3.42;1.13;;;36.20;93.80;;;;;;5092267;28;20036;-61
2023/08/14 10:59:41;;;;;;;3.28;1.30;;;36.30;94.40;;;;;;5093504;28;20063;-60
2023/08/14 11:02:10;;;;;;;5.00;1.08;;;35.60;94.40;;;;;;5094970;28;20036;-62
2023/08/14 11:05:00;;;;;;;3.65;1.17;;;35.10;94.80;;;;;;5094403;28;20040;-61
2023/08/14 11:07:34;;;;;;;3.47;1.10;;;35.20;94.40;;;;;;5094343;28;20064;-61
2023/08/14 11:10:04;;;;;;;3.10;1.00;;;35.00;93.70;;;;;;5094214;28;20101;-61
2023/08/14 11:12:33;;;;;;;3.85;1.48;;;34.50;95.10;;;;;;5094587;28;20048;-61
2023/08/14 11:14:59;;;;;;;2.75;1.00;;;33.70;95.70;;;;;;5094577;28;20055;-62
2023/08/14 11:17:26;;;;;;;16.83;2.13;;;33.90;95.90;;;;;;5093379;28;20066;-60
2023/08/14 11:19:52;;;;;;;7.35;1.50;;;33.50;96.10;;;;;;5084095;28;20116;-60
2023/08/14 11:22:22;;;;;;;5.45;1.10;;;33.00;96.20;;;;;;5088163;28;20071;-61
2023/08/14 11:24:48;;;;;;;3.47;1.00;;;33.00;96.50;;;;;;5091856;28;20040;-61
2023/08/14 11:27:17;;;;;;;3.83;0.98;;;32.60;97.10;;;;;;5093078;28;20039;-61
2023/08/14 11:29:43;;;;;;;9.18;1.52;;;32.50;97.20;;;;;;5091891;28;20082;-62
2023/08/14 11:32:08;;;;;;;3.35;1.05;;;33.50;96.60;;;;;;5087887;28;20509;-59
2023/08/14 11:34:37;;;;;;;3.42;1.30;;;33.90;96.00;;;;;;5089632;28;20036;-60
2023/08/14 11:37:04;;;;;;;4.50;1.00;;;33.30;96.20;;;;;;5092156;28;20039;-60
2023/08/14 11:39:31;;;;;;;2.83;1.33;;;32.90;96.10;;;;;;5087383;28;20076;-60
2023/08/14 11:41:56;;;;;;;4.40;1.30;;;32.60;96.10;;;;;;5092375;28;20035;-60
2023/08/14 11:44:22;;;;;;;3.25;0.85;;;32.30;97.00;;;;;;5092303;28;20040;-60
2023/08/14 11:46:48;;;;;;;3.90;1.15;;;33.20;97.90;;;;;;5093377;28;20043;-61
2023/08/14 11:49:15;;;;;;;3.13;1.05;;;33.50;96.60;;;;;;5094255;28;20040;-61
2023/08/14 11:51:42;;;;;;;6.70;1.75;;;33.10;96.60;;;;;;5095642;28;20043;-61
2023/08/14 11:54:09;;;;;;;4.28;1.48;;;32.30;97.10;;;;;;5095094;28;20040;-61
2023/08/14 11:56:37;;;;;;;7.18;1.73;;;32.80;96.90;;;;;;5094402;28;20040;-61
2023/08/14 11:59:06;;;;;;;7.25;3.05;;;33.10;97.00;;;;;;5094503;28;20051;-61
2023/08/14 12:01:43;;;;;;;9.15;2.60;;;33.50;96.50;;;;;;5093665;28;20039;-60
2023/08/14 12:04:10;;;;;;;5.28;2.15;;;33.80;96.70;;;;;;5093771;28;20528;-62
2023/08/14 12:06:36;;;;;;;8.55;1.48;;;34.10;96.50;;;;;;5094844;28;20040;-61
2023/08/14 12:09:07;;;;;;;3.58;1.25;;;34.00;95.70;;;;;;5093116;28;20462;-61
2023/08/14 12:11:33;;;;;;;4.20;1.30;;;33.40;95.10;;;;;;5093309;28;20402;-61
2023/08/14 12:14:06;;;;;;;6.70;1.40;;;33.70;94.60;;;;;;5093770;28;20047;-60
2023/08/14 12:16:37;;;;;;;2.67;1.25;;;33.30;95.00;;;;;;5094309;28;20111;-60
2023/08/14 12:19:06;;;;;;;5.18;1.45;;;33.00;96.00;;;;;;5093290;28;20036;-61
2023/08/14 12:21:32;;;;;;;5.15;1.88;;;33.20;96.30;;;;;;5094499;28;20036;-60
2023/08/14 12:24:04;;;;;;;6.07;1.83;;;33.50;96.40;;;;;;5122635;28;20039;-61
2023/08/14 12:26:39;;;;;;;4.30;1.50;;;33.60;95.50;;;;;;5113703;28;20104;-61
2023/08/14 12:29:05;;;;;;;13.43;3.03;;;33.30;95.70;;;;;;5119116;28;20062;-60
2023/08/14 12:31:32;;;;;;;7.93;1.60;;;33.60;96.80;;;;;;5118734;28;20043;-61
2023/08/14 12:33:58;;;;;;;5.05;1.45;;;33.50;96.10;;;;;;5118680;28;20051;-61
2023/08/14 12:36:24;;;;;;;2.28;1.10;;;33.10;95.80;;;;;;5118230;27;20435;-61
2023/08/14 12:38:49;;;;;;;3.05;1.05;;;33.00;96.70;;;;;;5119083;28;20104;-61
2023/08/14 12:41:16;;;;;;;3.20;1.38;;;32.80;96.50;;;;;;5119611;28;20035;-61
2023/08/14 12:43:42;;;;;;;4.45;1.40;;;32.50;96.80;;;;;;5117229;28;20496;-61